Cauquenes — D5HF2 — position and weather

sailwx.info

Track history (hours):
 
Tides and Currents Weather Stations Pressure Air Temp Water Temp Dewpoint Dewpoint Depression Visibility Wind Speed Wind Dir Waves Ship Positions

Cauquenes

Last reported at 2018-Jul-06 08:16 UTC. Time now 2018-Jul-21 08:00 UTC.
Position N 26°53' W 117°11'.
Warning: this ship's position is 14 days out of date.

Length 300 m; draft 10 m.

Type: Ship (hazmat cat A). MMSI: 636016665.

Date/timePositionNaut miles runAvg speedWind from/ knotsBaromVisibWave heightAir tempDewpointWater temp
2018-Jul-06 08:16N 26°53' W 117°11'519.2
2018-Jul-06 08:00N 26°56' W 117°16'1019.3
2018-Jul-06 07:30N 27°02' W 117°24'2319.3
2018-Jul-06 06:18N 27°16' W 117°45'619.3
2018-Jul-06 06:00N 27°19' W 117°51'1019.4
2018-Jul-06 05:30N 27°25' W 117°59'1019.9
2018-Jul-06 05:00N 27°31' W 118°09'1019.7
2018-Jul-06 04:30N 27°37' W 118°17'1019.3
2018-Jul-06 04:00N 27°42' W 118°26'1019.1
2018-Jul-06 03:30N 27°48' W 118°35'1019.0
2018-Jul-06 02:59N 27°54' W 118°44'919.1
2018-Jul-06 02:29N 27°60' W 118°53'919.1
2018-Jul-06 02:00N 28°05' W 119°01'918.9
2018-Jul-06 01:30N 28°11' W 119°10'1019.1
2018-Jul-06 01:00N 28°16' W 119°18'1019.4
2018-Jul-06 00:30N 28°22' W 119°27'1019.2
2018-Jul-06 00:00N 28°28' W 119°36'1019.2
2018-Jul-05 23:30N 28°33' W 119°45'1019.3
2018-Jul-05 23:00N 28°39' W 119°54'1019.2
2018-Jul-05 22:30N 28°45' W 120°03'1019.4
2018-Jul-05 22:00N 28°51' W 120°11'919.0
2018-Jul-05 21:30N 28°56' W 120°20'918.9
2018-Jul-05 21:00N 29°02' W 120°29'919.0
2018-Jul-05 20:30N 29°07' W 120°38'1019.0
2018-Jul-05 20:00N 29°13' W 120°46'919.1
2018-Jul-05 19:30N 29°19' W 120°55'1019.3
2018-Jul-05 19:00N 29°24' W 121°04'1019.4
2018-Jul-05 18:30N 29°30' W 121°13'1019.4
2018-Jul-05 18:00N 29°36' W 121°22'1019.6
2018-Jul-05 17:30N 29°42' W 121°31'1019.7
2018-Jul-05 17:01N 29°47' W 121°40'1019.5
2018-Jul-05 16:30N 29°53' W 121°49'1019.9
2018-Jul-05 16:00N 29°59' W 121°59'1019.7
2018-Jul-05 15:30N 30°05' W 122°08'1019.8
2018-Jul-05 15:00N 30°10' W 122°17'918.6
2018-Jul-05 14:30N 30°17' W 122°25'1919.1
2018-Jul-05 13:30N 30°28' W 122°43'1019.1
2018-Jul-05 13:00N 30°34' W 122°52'918.6
2018-Jul-05 12:30N 30°40' W 123°00'918.9
2018-Jul-05 12:00N 30°45' W 123°09'1019.3
2018-Jul-05 11:30N 30°51' W 123°18'1019.4
2018-Jul-05 11:00N 30°57' W 123°27'1019.6
2018-Jul-05 10:30N 31°03' W 123°36'1019.5
2018-Jul-05 10:00N 31°09' W 123°45'1019.5
2018-Jul-05 09:30N 31°15' W 123°55'1019.6
2018-Jul-05 09:00N 31°21' W 124°04'1019.5
2018-Jul-05 08:30N 31°27' W 124°13'1019.6
2018-Jul-05 08:00N 31°32' W 124°22'1119.7
2018-Jul-05 07:28N 31°39' W 124°32'1319.6
2018-Jul-05 06:47N 31°47' W 124°45'519.7
2018-Jul-05 06:30N 31°50' W 124°50'1019.4
2018-Jul-05 06:00N 31°56' W 124°59'1019.5
2018-Jul-05 05:28N 32°02' W 125°09'1119.6
2018-Jul-05 04:54N 32°09' W 125°19'819.6
2018-Jul-05 04:30N 32°14' W 125°26'1019.8
2018-Jul-05 04:00N 32°20' W 125°36'1019.8
2018-Jul-05 03:30N 32°26' W 125°45'1120.1
2018-Jul-05 02:59N 32°32' W 125°55'1120.2
2018-Jul-05 02:28N 32°38' W 126°05'1120.2
2018-Jul-05 01:55N 32°45' W 126°15'1319.8
2018-Jul-05 01:16N 32°53' W 126°28'519.6
2018-Jul-05 01:00N 32°56' W 126°33'1019.7
2018-Jul-05 00:30N 33°02' W 126°42'1119.8
2018-Jul-04 23:57N 33°08' W 126°52'1519.8
2018-Jul-04 23:12N 33°18' W 127°07'619.9
2018-Jul-04 22:53N 33°21' W 127°13'1019.7
2018-Jul-04 22:22N 33°27' W 127°22'7819.5
2018-Jul-04 18:21N 34°15' W 128°38'1019.4
2018-Jul-04 17:51N 34°21' W 128°47'719.5
2018-Jul-04 17:30N 34°25' W 128°53'2219.7
2018-Jul-04 16:23N 34°38' W 129°15'719.8
2018-Jul-04 16:01N 34°42' W 129°22'1219.7
2018-Jul-04 15:24N 34°50' W 129°33'819.7
2018-Jul-04 15:00N 34°54' W 129°41'3119.9
2018-Jul-04 13:25N 35°12' W 130°13'819.8
2018-Jul-04 13:00N 35°17' W 130°21'1119.8
2018-Jul-04 12:26N 35°23' W 130°33'  
Track history (hours):
 
Tides and Currents Weather Stations Pressure Air Temp Water Temp Dewpoint Dewpoint Depression Visibility Wind Speed Wind Dir Waves Ship Positions

Cauquenes

Last reported at 2018-Jul-06 08:16 UTC. Time now 2018-Jul-21 08:00 UTC.
Position N 26°53' W 117°11'.
Warning: this ship's position is 14 days out of date.

Length 300 m; draft 10 m.

Type: Ship (hazmat cat A). MMSI: 636016665.

Date/timePositionNaut miles runAvg speedWind from/ knotsBaromVisibWave heightAir tempDewpointWater temp
2018-Jul-06 08:16N 26°53' W 117°11'519.2
2018-Jul-06 08:00N 26°56' W 117°16'1019.3
2018-Jul-06 07:30N 27°02' W 117°24'2319.3
2018-Jul-06 06:18N 27°16' W 117°45'619.3
2018-Jul-06 06:00N 27°19' W 117°51'1019.4
2018-Jul-06 05:30N 27°25' W 117°59'1019.9
2018-Jul-06 05:00N 27°31' W 118°09'1019.7
2018-Jul-06 04:30N 27°37' W 118°17'1019.3
2018-Jul-06 04:00N 27°42' W 118°26'1019.1
2018-Jul-06 03:30N 27°48' W 118°35'1019.0
2018-Jul-06 02:59N 27°54' W 118°44'919.1
2018-Jul-06 02:29N 27°60' W 118°53'919.1
2018-Jul-06 02:00N 28°05' W 119°01'918.9
2018-Jul-06 01:30N 28°11' W 119°10'1019.1
2018-Jul-06 01:00N 28°16' W 119°18'1019.4
2018-Jul-06 00:30N 28°22' W 119°27'1019.2
2018-Jul-06 00:00N 28°28' W 119°36'1019.2
2018-Jul-05 23:30N 28°33' W 119°45'1019.3
2018-Jul-05 23:00N 28°39' W 119°54'1019.2
2018-Jul-05 22:30N 28°45' W 120°03'1019.4
2018-Jul-05 22:00N 28°51' W 120°11'919.0
2018-Jul-05 21:30N 28°56' W 120°20'918.9
2018-Jul-05 21:00N 29°02' W 120°29'919.0
2018-Jul-05 20:30N 29°07' W 120°38'1019.0
2018-Jul-05 20:00N 29°13' W 120°46'919.1
2018-Jul-05 19:30N 29°19' W 120°55'1019.3
2018-Jul-05 19:00N 29°24' W 121°04'1019.4
2018-Jul-05 18:30N 29°30' W 121°13'1019.4
2018-Jul-05 18:00N 29°36' W 121°22'1019.6
2018-Jul-05 17:30N 29°42' W 121°31'1019.7
2018-Jul-05 17:01N 29°47' W 121°40'1019.5
2018-Jul-05 16:30N 29°53' W 121°49'1019.9
2018-Jul-05 16:00N 29°59' W 121°59'1019.7
2018-Jul-05 15:30N 30°05' W 122°08'1019.8
2018-Jul-05 15:00N 30°10' W 122°17'918.6
2018-Jul-05 14:30N 30°17' W 122°25'1919.1
2018-Jul-05 13:30N 30°28' W 122°43'1019.1
2018-Jul-05 13:00N 30°34' W 122°52'918.6
2018-Jul-05 12:30N 30°40' W 123°00'918.9
2018-Jul-05 12:00N 30°45' W 123°09'1019.3
2018-Jul-05 11:30N 30°51' W 123°18'1019.4
2018-Jul-05 11:00N 30°57' W 123°27'1019.6
2018-Jul-05 10:30N 31°03' W 123°36'1019.5
2018-Jul-05 10:00N 31°09' W 123°45'1019.5
2018-Jul-05 09:30N 31°15' W 123°55'1019.6
2018-Jul-05 09:00N 31°21' W 124°04'1019.5
2018-Jul-05 08:30N 31°27' W 124°13'1019.6
2018-Jul-05 08:00N 31°32' W 124°22'1119.7
2018-Jul-05 07:28N 31°39' W 124°32'1319.6
2018-Jul-05 06:47N 31°47' W 124°45'519.7
2018-Jul-05 06:30N 31°50' W 124°50'1019.4
2018-Jul-05 06:00N 31°56' W 124°59'1019.5
2018-Jul-05 05:28N 32°02' W 125°09'1119.6
2018-Jul-05 04:54N 32°09' W 125°19'819.6
2018-Jul-05 04:30N 32°14' W 125°26'1019.8
2018-Jul-05 04:00N 32°20' W 125°36'1019.8
2018-Jul-05 03:30N 32°26' W 125°45'1120.1
2018-Jul-05 02:59N 32°32' W 125°55'1120.2
2018-Jul-05 02:28N 32°38' W 126°05'1120.2
2018-Jul-05 01:55N 32°45' W 126°15'1319.8
2018-Jul-05 01:16N 32°53' W 126°28'519.6
2018-Jul-05 01:00N 32°56' W 126°33'1019.7
2018-Jul-05 00:30N 33°02' W 126°42'1119.8
2018-Jul-04 23:57N 33°08' W 126°52'1519.8
2018-Jul-04 23:12N 33°18' W 127°07'619.9
2018-Jul-04 22:53N 33°21' W 127°13'1019.7
2018-Jul-04 22:22N 33°27' W 127°22'7819.5
2018-Jul-04 18:21N 34°15' W 128°38'1019.4
2018-Jul-04 17:51N 34°21' W 128°47'719.5
2018-Jul-04 17:30N 34°25' W 128°53'2219.7
2018-Jul-04 16:23N 34°38' W 129°15'719.8
2018-Jul-04 16:01N 34°42' W 129°22'1219.7
2018-Jul-04 15:24N 34°50' W 129°33'819.7
2018-Jul-04 15:00N 34°54' W 129°41'3119.9
2018-Jul-04 13:25N 35°12' W 130°13'819.8
2018-Jul-04 13:00N 35°17' W 130°21'1119.8
2018-Jul-04 12:26N 35°23' W 130°33'  

Dump ship's entire track history